Las Palmasde Grancan — EAJD — position and weather

sailwx.info

Track history (hours):
 
Tides and Currents Weather Stations Pressure Air Temp Water Temp Dewpoint Dewpoint Depression Visibility Wind Speed Wind Dir Waves Ship Positions

Las Palmasde Grancan

Last reported at 2018-Feb-06 01:14 UTC. Time now 2018-Feb-23 06:35 UTC.
Position N 36°06' W 005°10'.
Warning: this ship's position is 17 days out of date.

Length 117 m; draft 4.8 m.

Type: Passenger vessel. MMSI: 224646000.

Date/timePositionNaut miles runAvg speedWind from/ knotsBaromVisibWave heightAir tempDewpointWater temp
2018-Feb-06 01:14N 36°06' W 005°10'13 5.1
2018-Feb-05 22:41N 36°01' W 005°25'6 2.7
2018-Feb-05 20:23N 35°56' W 005°30'5 1.6
2018-Feb-05 16:57N 35°60' W 005°25'4 0.5
2018-Feb-05 08:19N 35°57' W 005°29'411.8
2018-Feb-05 07:59N 36°00' W 005°26'1 0.2
2018-Feb-05 01:17N 36°01' W 005°25'516.5
2018-Feb-05 01:00N 35°57' W 005°28'2 0.8
2018-Feb-04 22:48N 35°56' W 005°30'412.5
2018-Feb-04 22:30N 35°59' W 005°28'3 0.8
2018-Feb-04 19:14N 35°60' W 005°24'417.0
2018-Feb-04 19:00N 35°57' W 005°28'6 1.1
2018-Feb-04 13:26N 36°02' W 005°24'716.5
2018-Feb-04 13:00N 35°56' W 005°29'5 1.7
2018-Feb-04 10:00N 36°00' W 005°24'1 0.4
2018-Feb-04 06:52N 36°01' W 005°24'616.9
2018-Feb-04 06:30N 35°57' W 005°29'1 0.5
2018-Feb-04 04:02N 35°56' W 005°30'013.7
2018-Feb-04 04:01N 35°56' W 005°30'612.5
2018-Feb-04 03:31N 36°01' W 005°25'7 3.5
2018-Feb-04 01:36N 36°08' W 005°26'0 4.4
2018-Feb-04 01:30N 36°08' W 005°26'5 8.7
2018-Feb-04 00:56N 36°04' W 005°24'715.9
2018-Feb-04 00:30N 35°58' W 005°27'3 0.9
2018-Feb-03 21:31N 35°56' W 005°30'012.2
2018-Feb-03 21:30N 35°56' W 005°30'510.6
2018-Feb-03 21:00N 36°01' W 005°26'4 1.3
2018-Feb-03 18:04N 36°04' W 005°23'115.9
2018-Feb-03 17:58N 36°02' W 005°23'715.7
2018-Feb-03 17:31N 35°56' W 005°28'1 0.5
2018-Feb-03 14:35N 35°56' W 005°30'114.9
2018-Feb-03 14:30N 35°57' W 005°30'713.6
2018-Feb-03 14:01N 36°03' W 005°24'3 1.0
2018-Feb-03 10:55N 35°59' W 005°25'4 1.6
2018-Feb-03 08:25N 35°57' W 005°29'410.4
2018-Feb-03 08:01N 36°01' W 005°26'7 2.5
2018-Feb-03 05:07N 36°08' W 005°26'0 0.0
2018-Feb-03 04:55N 36°08' W 005°26'0 0.0
2018-Feb-03 01:49N 36°08' W 005°26'0 0.0
2018-Feb-03 00:49N 36°08' W 005°26'0 0.7
2018-Feb-03 00:09N 36°08' W 005°26'6 9.1
2018-Feb-02 23:26N 36°02' W 005°24'6 2.4
2018-Feb-02 20:58N 35°57' W 005°29'5 1.4
2018-Feb-02 17:37N 35°60' W 005°24'217.0
2018-Feb-02 17:31N 35°59' W 005°26'4 1.8
2018-Feb-02 15:13N 35°56' W 005°30'6 1.7
2018-Feb-02 11:49N 36°00' W 005°25'516.6
2018-Feb-02 11:30N 35°57' W 005°29'0 0.1
2018-Feb-02 09:09N 35°57' W 005°30'212.5
2018-Feb-02 09:00N 35°58' W 005°29'7 9.8
2018-Feb-02 08:19N 36°03' W 005°23'4 0.5
2018-Feb-02 01:11N 35°60' W 005°24'316.2
2018-Feb-02 01:00N 35°58' W 005°27'2 0.5
2018-Feb-01 22:00N 35°59' W 005°28'4 1.0
2018-Feb-01 18:32N 36°00' W 005°24'016.3
2018-Feb-01 18:30N 35°60' W 005°24'5 1.9
2018-Feb-01 15:44N 35°56' W 005°30'312.9
2018-Feb-01 15:30N 35°59' W 005°28'712.2
2018-Feb-01 14:58N 36°04' W 005°23'2 0.7
2018-Feb-01 11:58N 36°02' W 005°24'8 2.4
2018-Feb-01 08:51N 35°56' W 005°29'411.8
2018-Feb-01 08:30N 35°60' W 005°27'3 0.8
2018-Feb-01 05:02N 36°01' W 005°24'115.3
2018-Feb-01 04:59N 36°01' W 005°24'6 2.2
2018-Feb-01 02:03N 35°56' W 005°30'114.6
2018-Feb-01 02:00N 35°57' W 005°30'714.1
2018-Feb-01 01:30N 36°03' W 005°25'1 0.3
2018-Jan-31 22:26N 36°03' W 005°24'8 1.7
2018-Jan-31 17:37N 35°56' W 005°30'213.9
2018-Jan-31 17:30N 35°58' W 005°29'1 0.2
2018-Jan-31 13:00N 35°57' W 005°29'1 0.4
2018-Jan-31 09:39N 35°56' W 005°30'214.2
2018-Jan-31 09:31N 35°58' W 005°29'9 1.5
2018-Jan-31 03:21N 36°06' W 005°22'514.3
2018-Jan-31 03:00N 36°01' W 005°24'611.6
2018-Jan-31 02:30N 35°57' W 005°29'1 0.2
2018-Jan-30 22:31N 35°56' W 005°30'015.2
2018-Jan-30 22:30N 35°56' W 005°30'  
Track history (hours):
 
Tides and Currents Weather Stations Pressure Air Temp Water Temp Dewpoint Dewpoint Depression Visibility Wind Speed Wind Dir Waves Ship Positions

Las Palmasde Grancan

Last reported at 2018-Feb-06 01:14 UTC. Time now 2018-Feb-23 06:35 UTC.
Position N 36°06' W 005°10'.
Warning: this ship's position is 17 days out of date.

Length 117 m; draft 4.8 m.

Type: Passenger vessel. MMSI: 224646000.

Date/timePositionNaut miles runAvg speedWind from/ knotsBaromVisibWave heightAir tempDewpointWater temp
2018-Feb-06 01:14N 36°06' W 005°10'13 5.1
2018-Feb-05 22:41N 36°01' W 005°25'6 2.7
2018-Feb-05 20:23N 35°56' W 005°30'5 1.6
2018-Feb-05 16:57N 35°60' W 005°25'4 0.5
2018-Feb-05 08:19N 35°57' W 005°29'411.8
2018-Feb-05 07:59N 36°00' W 005°26'1 0.2
2018-Feb-05 01:17N 36°01' W 005°25'516.5
2018-Feb-05 01:00N 35°57' W 005°28'2 0.8
2018-Feb-04 22:48N 35°56' W 005°30'412.5
2018-Feb-04 22:30N 35°59' W 005°28'3 0.8
2018-Feb-04 19:14N 35°60' W 005°24'417.0
2018-Feb-04 19:00N 35°57' W 005°28'6 1.1
2018-Feb-04 13:26N 36°02' W 005°24'716.5
2018-Feb-04 13:00N 35°56' W 005°29'5 1.7
2018-Feb-04 10:00N 36°00' W 005°24'1 0.4
2018-Feb-04 06:52N 36°01' W 005°24'616.9
2018-Feb-04 06:30N 35°57' W 005°29'1 0.5
2018-Feb-04 04:02N 35°56' W 005°30'013.7
2018-Feb-04 04:01N 35°56' W 005°30'612.5
2018-Feb-04 03:31N 36°01' W 005°25'7 3.5
2018-Feb-04 01:36N 36°08' W 005°26'0 4.4
2018-Feb-04 01:30N 36°08' W 005°26'5 8.7
2018-Feb-04 00:56N 36°04' W 005°24'715.9
2018-Feb-04 00:30N 35°58' W 005°27'3 0.9
2018-Feb-03 21:31N 35°56' W 005°30'012.2
2018-Feb-03 21:30N 35°56' W 005°30'510.6
2018-Feb-03 21:00N 36°01' W 005°26'4 1.3
2018-Feb-03 18:04N 36°04' W 005°23'115.9
2018-Feb-03 17:58N 36°02' W 005°23'715.7
2018-Feb-03 17:31N 35°56' W 005°28'1 0.5
2018-Feb-03 14:35N 35°56' W 005°30'114.9
2018-Feb-03 14:30N 35°57' W 005°30'713.6
2018-Feb-03 14:01N 36°03' W 005°24'3 1.0
2018-Feb-03 10:55N 35°59' W 005°25'4 1.6
2018-Feb-03 08:25N 35°57' W 005°29'410.4
2018-Feb-03 08:01N 36°01' W 005°26'7 2.5
2018-Feb-03 05:07N 36°08' W 005°26'0 0.0
2018-Feb-03 04:55N 36°08' W 005°26'0 0.0
2018-Feb-03 01:49N 36°08' W 005°26'0 0.0
2018-Feb-03 00:49N 36°08' W 005°26'0 0.7
2018-Feb-03 00:09N 36°08' W 005°26'6 9.1
2018-Feb-02 23:26N 36°02' W 005°24'6 2.4
2018-Feb-02 20:58N 35°57' W 005°29'5 1.4
2018-Feb-02 17:37N 35°60' W 005°24'217.0
2018-Feb-02 17:31N 35°59' W 005°26'4 1.8
2018-Feb-02 15:13N 35°56' W 005°30'6 1.7
2018-Feb-02 11:49N 36°00' W 005°25'516.6
2018-Feb-02 11:30N 35°57' W 005°29'0 0.1
2018-Feb-02 09:09N 35°57' W 005°30'212.5
2018-Feb-02 09:00N 35°58' W 005°29'7 9.8
2018-Feb-02 08:19N 36°03' W 005°23'4 0.5
2018-Feb-02 01:11N 35°60' W 005°24'316.2
2018-Feb-02 01:00N 35°58' W 005°27'2 0.5
2018-Feb-01 22:00N 35°59' W 005°28'4 1.0
2018-Feb-01 18:32N 36°00' W 005°24'016.3
2018-Feb-01 18:30N 35°60' W 005°24'5 1.9
2018-Feb-01 15:44N 35°56' W 005°30'312.9
2018-Feb-01 15:30N 35°59' W 005°28'712.2
2018-Feb-01 14:58N 36°04' W 005°23'2 0.7
2018-Feb-01 11:58N 36°02' W 005°24'8 2.4
2018-Feb-01 08:51N 35°56' W 005°29'411.8
2018-Feb-01 08:30N 35°60' W 005°27'3 0.8
2018-Feb-01 05:02N 36°01' W 005°24'115.3
2018-Feb-01 04:59N 36°01' W 005°24'6 2.2
2018-Feb-01 02:03N 35°56' W 005°30'114.6
2018-Feb-01 02:00N 35°57' W 005°30'714.1
2018-Feb-01 01:30N 36°03' W 005°25'1 0.3
2018-Jan-31 22:26N 36°03' W 005°24'8 1.7
2018-Jan-31 17:37N 35°56' W 005°30'213.9
2018-Jan-31 17:30N 35°58' W 005°29'1 0.2
2018-Jan-31 13:00N 35°57' W 005°29'1 0.4
2018-Jan-31 09:39N 35°56' W 005°30'214.2
2018-Jan-31 09:31N 35°58' W 005°29'9 1.5
2018-Jan-31 03:21N 36°06' W 005°22'514.3
2018-Jan-31 03:00N 36°01' W 005°24'611.6
2018-Jan-31 02:30N 35°57' W 005°29'1 0.2
2018-Jan-30 22:31N 35°56' W 005°30'015.2
2018-Jan-30 22:30N 35°56' W 005°30'  

Dump ship's entire track history